sensor_id;sensor_type;location;lat;lon;timestamp;pressure;altitude;pressure_sealevel;temperature;humidity
7309;BME280;3695;53.330;9.876;2023-10-31T00:02:07;98477.19;;;15.00;nan
7309;BME280;3695;53.330;9.876;2023-10-31T00:04:33;98475.34;;;15.02;nan
7309;BME280;3695;53.330;9.876;2023-10-31T00:07:01;98473.59;;;15.01;nan
7309;BME280;3695;53.330;9.876;2023-10-31T00:09:29;98471.78;;;15.03;nan
7309;BME280;3695;53.330;9.876;2023-10-31T00:11:55;98474.94;;;15.14;nan
7309;BME280;3695;53.330;9.876;2023-10-31T00:14:22;98476.81;;;15.12;nan
7309;BME280;3695;53.330;9.876;2023-10-31T00:16:48;98481.91;;;15.18;nan
7309;BME280;3695;53.330;9.876;2023-10-31T00:19:15;98477.47;;;15.19;nan
7309;BME280;3695;53.330;9.876;2023-10-31T00:21:41;98478.31;;;15.19;nan
7309;BME280;3695;53.330;9.876;2023-10-31T00:24:09;98479.19;;;15.20;nan
7309;BME280;3695;53.330;9.876;2023-10-31T00:26:35;98478.38;;;15.18;nan
7309;BME280;3695;53.330;9.876;2023-10-31T00:29:02;98477.53;;;15.17;nan
7309;BME280;3695;53.330;9.876;2023-10-31T00:31:28;98472.41;;;15.11;nan
7309;BME280;3695;53.330;9.876;2023-10-31T00:33:55;98475.94;;;15.12;nan
7309;BME280;3695;53.330;9.876;2023-10-31T00:36:22;98459.72;;;15.22;nan
7309;BME280;3695;53.330;9.876;2023-10-31T00:38:49;98467.72;;;15.19;nan
7309;BME280;3695;53.330;9.876;2023-10-31T00:41:16;98464.28;;;15.17;nan
7309;BME280;3695;53.330;9.876;2023-10-31T00:43:43;98462.44;;;15.19;nan
7309;BME280;3695;53.330;9.876;2023-10-31T00:46:09;98450.81;;;15.25;nan
7309;BME280;3695;53.330;9.876;2023-10-31T00:48:36;98456.16;;;15.23;nan
7309;BME280;3695;53.330;9.876;2023-10-31T00:51:02;98453.78;;;15.14;nan
7309;BME280;3695;53.330;9.876;2023-10-31T00:53:29;98440.53;;;15.16;nan
7309;BME280;3695;53.330;9.876;2023-10-31T00:55:55;98444.19;;;15.12;nan
7309;BME280;3695;53.330;9.876;2023-10-31T00:58:24;98433.53;;;15.13;nan
7309;BME280;3695;53.330;9.876;2023-10-31T01:00:50;98438.59;;;15.21;nan
7309;BME280;3695;53.330;9.876;2023-10-31T01:03:16;98447.44;;;15.20;nan
7309;BME280;3695;53.330;9.876;2023-10-31T01:05:43;98436.97;;;15.17;nan
7309;BME280;3695;53.330;9.876;2023-10-31T01:08:09;98436.09;;;15.16;nan
7309;BME280;3695;53.330;9.876;2023-10-31T01:10:36;98430.69;;;15.19;nan
7309;BME280;3695;53.330;9.876;2023-10-31T01:13:02;98431.31;;;15.27;nan
7309;BME280;3695;53.330;9.876;2023-10-31T01:15:30;98427.00;;;15.25;nan
7309;BME280;3695;53.330;9.876;2023-10-31T01:17:57;98429.00;;;15.18;nan
7309;BME280;3695;53.330;9.876;2023-10-31T01:20:23;98421.06;;;15.18;nan
7309;BME280;3695;53.330;9.876;2023-10-31T01:22:49;98423.50;;;15.24;nan
7309;BME280;3695;53.330;9.876;2023-10-31T01:25:16;98420.03;;;15.22;nan
7309;BME280;3695;53.330;9.876;2023-10-31T01:27:42;98413.19;;;15.15;nan
7309;BME280;3695;53.330;9.876;2023-10-31T01:30:10;98422.00;;;15.16;nan
7309;BME280;3695;53.330;9.876;2023-10-31T01:32:38;98412.38;;;15.13;nan
7309;BME280;3695;53.330;9.876;2023-10-31T01:35:05;98420.94;;;15.21;nan
7309;BME280;3695;53.330;9.876;2023-10-31T01:37:31;98418.13;;;15.26;nan
7309;BME280;3695;53.330;9.876;2023-10-31T01:39:57;98411.69;;;15.34;nan
7309;BME280;3695;53.330;9.876;2023-10-31T01:42:24;98410.00;;;15.32;nan
7309;BME280;3695;53.330;9.876;2023-10-31T01:44:50;98409.25;;;15.28;nan
7309;BME280;3695;53.330;9.876;2023-10-31T01:47:17;98409.88;;;15.36;nan
7309;BME280;3695;53.330;9.876;2023-10-31T01:49:45;98413.13;;;15.18;nan
7309;BME280;3695;53.330;9.876;2023-10-31T01:52:11;98397.75;;;15.29;nan
7309;BME280;3695;53.330;9.876;2023-10-31T01:54:38;98391.63;;;15.27;nan
7309;BME280;3695;53.330;9.876;2023-10-31T01:57:05;98389.91;;;15.26;nan
7309;BME280;3695;53.330;9.876;2023-10-31T01:59:31;98388.38;;;15.19;nan
7309;BME280;3695;53.330;9.876;2023-10-31T02:01:57;98386.25;;;15.30;nan
7309;BME280;3695;53.330;9.876;2023-10-31T02:04:25;98366.03;;;15.28;nan
7309;BME280;3695;53.330;9.876;2023-10-31T02:06:52;98363.22;;;15.32;nan
7309;BME280;3695;53.330;9.876;2023-10-31T02:09:19;98357.34;;;15.24;nan
7309;BME280;3695;53.330;9.876;2023-10-31T02:11:49;98365.88;;;15.32;nan
7309;BME280;3695;53.330;9.876;2023-10-31T02:14:15;98358.16;;;15.26;nan
7309;BME280;3695;53.330;9.876;2023-10-31T02:16:42;98352.78;;;15.29;nan
7309;BME280;3695;53.330;9.876;2023-10-31T02:19:09;98353.47;;;15.34;nan
7309;BME280;3695;53.330;9.876;2023-10-31T02:21:39;98342.63;;;15.42;nan
7309;BME280;3695;53.330;9.876;2023-10-31T02:24:06;98337.09;;;15.23;nan
7309;BME280;3695;53.330;9.876;2023-10-31T02:26:34;98335.03;;;15.31;nan
7309;BME280;3695;53.330;9.876;2023-10-31T02:29:01;98334.81;;;15.37;nan
7309;BME280;3695;53.330;9.876;2023-10-31T02:31:28;98337.38;;;15.40;nan
7309;BME280;3695;53.330;9.876;2023-10-31T02:33:55;98334.06;;;15.34;nan
7309;BME280;3695;53.330;9.876;2023-10-31T02:36:22;98329.53;;;15.37;nan
7309;BME280;3695;53.330;9.876;2023-10-31T02:38:49;98327.72;;;15.39;nan
7309;BME280;3695;53.330;9.876;2023-10-31T02:41:16;98325.19;;;15.36;nan
7309;BME280;3695;53.330;9.876;2023-10-31T02:43:42;98321.75;;;15.33;nan
7309;BME280;3695;53.330;9.876;2023-10-31T02:46:09;98319.78;;;15.39;nan
7309;BME280;3695;53.330;9.876;2023-10-31T02:48:37;98308.16;;;15.43;nan
7309;BME280;3695;53.330;9.876;2023-10-31T02:51:05;98311.09;;;15.36;nan
7309;BME280;3695;53.330;9.876;2023-10-31T02:53:31;98305.78;;;15.36;nan
7309;BME280;3695;53.330;9.876;2023-10-31T02:55:59;98313.66;;;15.37;nan
7309;BME280;3695;53.330;9.876;2023-10-31T02:58:25;98301.59;;;15.30;nan
7309;BME280;3695;53.330;9.876;2023-10-31T03:00:52;98306.88;;;15.30;nan
7309;BME280;3695;53.330;9.876;2023-10-31T03:03:18;98313.78;;;15.34;nan
7309;BME280;3695;53.330;9.876;2023-10-31T03:05:45;98312.69;;;15.40;nan
7309;BME280;3695;53.330;9.876;2023-10-31T03:08:11;98300.50;;;15.36;nan
7309;BME280;3695;53.330;9.876;2023-10-31T03:10:38;98306.97;;;15.27;nan
7309;BME280;3695;53.330;9.876;2023-10-31T03:13:06;98307.63;;;15.34;nan
7309;BME280;3695;53.330;9.876;2023-10-31T03:15:32;98303.03;;;15.39;nan
7309;BME280;3695;53.330;9.876;2023-10-31T03:17:59;98306.59;;;15.38;nan
7309;BME280;3695;53.330;9.876;2023-10-31T03:20:25;98306.31;;;15.45;nan
7309;BME280;3695;53.330;9.876;2023-10-31T03:22:51;98294.13;;;15.41;nan
7309;BME280;3695;53.330;9.876;2023-10-31T03:25:18;98293.34;;;15.38;nan
7309;BME280;3695;53.330;9.876;2023-10-31T03:27:45;98293.22;;;15.42;nan
7309;BME280;3695;53.330;9.876;2023-10-31T03:30:13;98295.72;;;15.45;nan
7309;BME280;3695;53.330;9.876;2023-10-31T03:32:39;98297.69;;;15.40;nan
7309;BME280;3695;53.330;9.876;2023-10-31T03:35:06;98291.69;;;15.35;nan
7309;BME280;3695;53.330;9.876;2023-10-31T03:37:33;98292.59;;;15.34;nan
7309;BME280;3695;53.330;9.876;2023-10-31T03:40:01;98285.59;;;15.33;nan
7309;BME280;3695;53.330;9.876;2023-10-31T03:42:27;98284.50;;;15.39;nan
7309;BME280;3695;53.330;9.876;2023-10-31T03:44:54;98286.13;;;15.43;nan
7309;BME280;3695;53.330;9.876;2023-10-31T03:47:21;98291.34;;;15.44;nan
7309;BME280;3695;53.330;9.876;2023-10-31T03:49:48;98284.91;;;15.53;nan
7309;BME280;3695;53.330;9.876;2023-10-31T03:52:14;98293.88;;;15.49;nan
7309;BME280;3695;53.330;9.876;2023-10-31T03:54:41;98289.53;;;15.46;nan
7309;BME280;3695;53.330;9.876;2023-10-31T03:57:07;98288.66;;;15.46;nan
7309;BME280;3695;53.330;9.876;2023-10-31T03:59:36;98290.50;;;15.44;nan
7309;BME280;3695;53.330;9.876;2023-10-31T04:02:03;98279.84;;;15.45;nan
7309;BME280;3695;53.330;9.876;2023-10-31T04:04:31;98284.13;;;15.49;nan
7309;BME280;3695;53.330;9.876;2023-10-31T04:06:57;98277.50;;;15.63;nan
7309;BME280;3695;53.330;9.876;2023-10-31T04:09:24;98279.75;;;15.48;nan
7309;BME280;3695;53.330;9.876;2023-10-31T04:11:51;98277.91;;;15.51;nan
7309;BME280;3695;53.330;9.876;2023-10-31T04:14:17;98285.91;;;15.49;nan
7309;BME280;3695;53.330;9.876;2023-10-31T04:16:43;98275.56;;;15.43;nan
7309;BME280;3695;53.330;9.876;2023-10-31T04:19:11;98283.31;;;15.47;nan
7309;BME280;3695;53.330;9.876;2023-10-31T04:21:39;98269.94;;;15.52;nan
7309;BME280;3695;53.330;9.876;2023-10-31T04:24:06;98267.44;;;15.47;nan
7309;BME280;3695;53.330;9.876;2023-10-31T04:26:32;98281.84;;;15.39;nan
7309;BME280;3695;53.330;9.876;2023-10-31T04:28:59;98272.59;;;15.52;nan
7309;BME280;3695;53.330;9.876;2023-10-31T04:31:25;98267.66;;;15.41;nan
7309;BME280;3695;53.330;9.876;2023-10-31T04:33:51;98268.03;;;15.56;nan
7309;BME280;3695;53.330;9.876;2023-10-31T04:36:18;98272.81;;;15.44;nan
7309;BME280;3695;53.330;9.876;2023-10-31T04:38:45;98276.09;;;15.53;nan
7309;BME280;3695;53.330;9.876;2023-10-31T04:41:12;98269.50;;;15.39;nan
7309;BME280;3695;53.330;9.876;2023-10-31T04:43:39;98262.03;;;15.51;nan
7309;BME280;3695;53.330;9.876;2023-10-31T04:46:06;98263.34;;;15.64;nan
7309;BME280;3695;53.330;9.876;2023-10-31T04:48:33;98260.22;;;15.53;nan
7309;BME280;3695;53.330;9.876;2023-10-31T04:50:59;98261.97;;;15.54;nan
7309;BME280;3695;53.330;9.876;2023-10-31T04:53:26;98243.47;;;15.52;nan
7309;BME280;3695;53.330;9.876;2023-10-31T04:55:53;98257.59;;;15.53;nan
7309;BME280;3695;53.330;9.876;2023-10-31T04:58:20;98241.94;;;15.45;nan
7309;BME280;3695;53.330;9.876;2023-10-31T05:00:46;98242.38;;;15.58;nan
7309;BME280;3695;53.330;9.876;2023-10-31T05:03:13;98238.09;;;15.55;nan
7309;BME280;3695;53.330;9.876;2023-10-31T05:05:39;98239.00;;;15.54;nan
7309;BME280;3695;53.330;9.876;2023-10-31T05:08:06;98246.13;;;15.51;nan
7309;BME280;3695;53.330;9.876;2023-10-31T05:10:32;98243.03;;;15.39;nan
7309;BME280;3695;53.330;9.876;2023-10-31T05:13:00;98249.69;;;15.49;nan
7309;BME280;3695;53.330;9.876;2023-10-31T05:15:27;98239.50;;;15.64;nan
7309;BME280;3695;53.330;9.876;2023-10-31T05:17:54;98241.44;;;15.60;nan
7309;BME280;3695;53.330;9.876;2023-10-31T05:20:20;98243.22;;;15.60;nan
7309;BME280;3695;53.330;9.876;2023-10-31T05:22:47;98246.59;;;15.63;nan
7309;BME280;3695;53.330;9.876;2023-10-31T05:25:13;98250.16;;;15.62;nan
7309;BME280;3695;53.330;9.876;2023-10-31T05:27:40;98248.56;;;15.58;nan
7309;BME280;3695;53.330;9.876;2023-10-31T05:30:08;98248.59;;;15.57;nan
7309;BME280;3695;53.330;9.876;2023-10-31T05:32:35;98242.72;;;15.48;nan
7309;BME280;3695;53.330;9.876;2023-10-31T05:35:01;98238.19;;;15.51;nan
7309;BME280;3695;53.330;9.876;2023-10-31T05:37:27;98234.69;;;15.50;nan
7309;BME280;3695;53.330;9.876;2023-10-31T05:39:54;98232.16;;;15.47;nan
7309;BME280;3695;53.330;9.876;2023-10-31T05:42:21;98228.25;;;15.59;nan
7309;BME280;3695;53.330;9.876;2023-10-31T05:44:48;98231.81;;;15.58;nan
7309;BME280;3695;53.330;9.876;2023-10-31T05:47:16;98226.81;;;15.48;nan
7309;BME280;3695;53.330;9.876;2023-10-31T05:49:42;98225.19;;;15.44;nan
7309;BME280;3695;53.330;9.876;2023-10-31T05:52:09;98218.25;;;15.42;nan
7309;BME280;3695;53.330;9.876;2023-10-31T05:54:35;98219.97;;;15.43;nan
7309;BME280;3695;53.330;9.876;2023-10-31T05:57:02;98218.16;;;15.43;nan
7309;BME280;3695;53.330;9.876;2023-10-31T05:59:28;98221.13;;;15.36;nan
7309;BME280;3695;53.330;9.876;2023-10-31T06:01:55;98218.72;;;15.28;nan
7309;BME280;3695;53.330;9.876;2023-10-31T06:04:22;98225.75;;;15.29;nan
7309;BME280;3695;53.330;9.876;2023-10-31T06:06:50;98227.59;;;15.27;nan
7309;BME280;3695;53.330;9.876;2023-10-31T06:09:16;98230.41;;;15.23;nan
7309;BME280;3695;53.330;9.876;2023-10-31T06:11:43;98223.28;;;15.25;nan
7309;BME280;3695;53.330;9.876;2023-10-31T06:14:10;98223.13;;;15.29;nan
7309;BME280;3695;53.330;9.876;2023-10-31T06:16:39;98228.94;;;15.14;nan
7309;BME280;3695;53.330;9.876;2023-10-31T06:19:06;98226.84;;;15.24;nan
7309;BME280;3695;53.330;9.876;2023-10-31T06:21:34;98231.44;;;15.19;nan
7309;BME280;3695;53.330;9.876;2023-10-31T06:24:01;98234.78;;;14.99;nan
7309;BME280;3695;53.330;9.876;2023-10-31T06:26:27;98236.59;;;14.97;nan
7309;BME280;3695;53.330;9.876;2023-10-31T06:28:54;98245.34;;;14.99;nan
7309;BME280;3695;53.330;9.876;2023-10-31T06:31:20;98250.63;;;14.99;nan
7309;BME280;3695;53.330;9.876;2023-10-31T06:33:47;98248.19;;;14.93;nan
7309;BME280;3695;53.330;9.876;2023-10-31T06:36:13;98256.38;;;14.85;nan
7309;BME280;3695;53.330;9.876;2023-10-31T06:38:41;98257.00;;;14.93;nan
7309;BME280;3695;53.330;9.876;2023-10-31T06:41:08;98263.84;;;14.73;nan
7309;BME280;3695;53.330;9.876;2023-10-31T06:43:34;98273.28;;;14.81;nan
7309;BME280;3695;53.330;9.876;2023-10-31T06:46:01;98273.06;;;14.87;nan
7309;BME280;3695;53.330;9.876;2023-10-31T06:48:29;98272.44;;;14.79;nan
7309;BME280;3695;53.330;9.876;2023-10-31T06:50:55;98261.44;;;14.65;nan
7309;BME280;3695;53.330;9.876;2023-10-31T06:53:22;98273.84;;;14.64;nan
7309;BME280;3695;53.330;9.876;2023-10-31T06:55:49;98289.03;;;14.58;nan
7309;BME280;3695;53.330;9.876;2023-10-31T06:58:16;98290.66;;;14.62;nan
7309;BME280;3695;53.330;9.876;2023-10-31T07:00:42;98287.66;;;14.45;nan
7309;BME280;3695;53.330;9.876;2023-10-31T07:03:09;98279.97;;;14.37;nan
7309;BME280;3695;53.330;9.876;2023-10-31T07:05:40;98294.59;;;14.49;nan
7309;BME280;3695;53.330;9.876;2023-10-31T07:08:06;98282.53;;;14.40;nan
7309;BME280;3695;53.330;9.876;2023-10-31T07:10:33;98301.94;;;14.39;nan
7309;BME280;3695;53.330;9.876;2023-10-31T07:13:01;98289.59;;;14.40;nan
7309;BME280;3695;53.330;9.876;2023-10-31T07:15:28;98294.25;;;14.30;nan
7309;BME280;3695;53.330;9.876;2023-10-31T07:17:54;98299.72;;;14.24;nan
7309;BME280;3695;53.330;9.876;2023-10-31T07:20:20;98311.25;;;14.21;nan
7309;BME280;3695;53.330;9.876;2023-10-31T07:22:47;98310.47;;;14.18;nan
7309;BME280;3695;53.330;9.876;2023-10-31T07:25:13;98309.78;;;14.11;nan
7309;BME280;3695;53.330;9.876;2023-10-31T07:27:40;98325.22;;;13.96;nan
7309;BME280;3695;53.330;9.876;2023-10-31T07:30:08;98320.41;;;14.10;nan
7309;BME280;3695;53.330;9.876;2023-10-31T07:32:35;98315.72;;;13.90;nan
7309;BME280;3695;53.330;9.876;2023-10-31T07:35:01;98322.72;;;13.91;nan
7309;BME280;3695;53.330;9.876;2023-10-31T07:37:28;98320.81;;;13.65;nan
7309;BME280;3695;53.330;9.876;2023-10-31T07:39:55;98317.16;;;13.69;nan
7309;BME280;3695;53.330;9.876;2023-10-31T07:42:21;98313.91;;;13.92;nan
7309;BME280;3695;53.330;9.876;2023-10-31T07:44:47;98314.50;;;13.71;nan
7309;BME280;3695;53.330;9.876;2023-10-31T07:47:17;98316.25;;;13.70;nan
7309;BME280;3695;53.330;9.876;2023-10-31T07:49:43;98321.69;;;13.66;nan
7309;BME280;3695;53.330;9.876;2023-10-31T07:52:10;98310.94;;;13.72;nan
7309;BME280;3695;53.330;9.876;2023-10-31T07:54:38;98312.97;;;13.62;nan
7309;BME280;3695;53.330;9.876;2023-10-31T07:57:05;98312.03;;;13.65;nan
7309;BME280;3695;53.330;9.876;2023-10-31T07:59:33;98312.53;;;13.77;nan
7309;BME280;3695;53.330;9.876;2023-10-31T08:01:59;98312.31;;;13.54;nan
7309;BME280;3695;53.330;9.876;2023-10-31T08:04:27;98310.66;;;13.81;nan
7309;BME280;3695;53.330;9.876;2023-10-31T08:06:55;98312.94;;;13.64;nan
7309;BME280;3695;53.330;9.876;2023-10-31T08:09:21;98309.91;;;13.77;nan
7309;BME280;3695;53.330;9.876;2023-10-31T08:11:48;98302.59;;;13.56;nan
7309;BME280;3695;53.330;9.876;2023-10-31T08:14:14;98311.34;;;13.57;nan
7309;BME280;3695;53.330;9.876;2023-10-31T08:16:41;98316.63;;;13.57;nan
7309;BME280;3695;53.330;9.876;2023-10-31T08:19:07;98310.84;;;13.44;nan
7309;BME280;3695;53.330;9.876;2023-10-31T08:21:35;98301.41;;;13.35;nan
7309;BME280;3695;53.330;9.876;2023-10-31T08:24:04;98291.94;;;13.27;nan
7309;BME280;3695;53.330;9.876;2023-10-31T08:26:31;98307.63;;;13.33;nan
7309;BME280;3695;53.330;9.876;2023-10-31T08:28:58;98311.06;;;13.36;nan
7309;BME280;3695;53.330;9.876;2023-10-31T08:31:24;98316.13;;;13.44;nan
7309;BME280;3695;53.330;9.876;2023-10-31T08:33:51;98316.41;;;13.33;nan
7309;BME280;3695;53.330;9.876;2023-10-31T08:36:17;98329.97;;;13.20;nan
7309;BME280;3695;53.330;9.876;2023-10-31T08:38:45;98317.78;;;13.48;nan
7309;BME280;3695;53.330;9.876;2023-10-31T08:41:11;98330.22;;;13.43;nan
7309;BME280;3695;53.330;9.876;2023-10-31T08:43:43;98317.56;;;13.23;nan
7309;BME280;3695;53.330;9.876;2023-10-31T08:46:10;98321.72;;;13.32;nan
7309;BME280;3695;53.330;9.876;2023-10-31T08:48:37;98326.13;;;13.31;nan
7309;BME280;3695;53.330;9.876;2023-10-31T08:51:04;98347.00;;;13.39;nan
7309;BME280;3695;53.330;9.876;2023-10-31T08:53:30;98338.94;;;13.45;nan
7309;BME280;3695;53.330;9.876;2023-10-31T08:55:58;98362.38;;;13.23;nan
7309;BME280;3695;53.330;9.876;2023-10-31T08:58:24;98374.41;;;13.35;nan
7309;BME280;3695;53.330;9.876;2023-10-31T09:00:51;98387.00;;;13.24;nan
7309;BME280;3695;53.330;9.876;2023-10-31T09:03:17;98397.84;;;13.45;nan
7309;BME280;3695;53.330;9.876;2023-10-31T09:05:43;98413.19;;;13.31;nan
7309;BME280;3695;53.330;9.876;2023-10-31T09:08:10;98418.19;;;13.42;nan
7309;BME280;3695;53.330;9.876;2023-10-31T09:10:37;98432.31;;;13.39;nan
7309;BME280;3695;53.330;9.876;2023-10-31T09:13:05;98426.13;;;13.40;nan
7309;BME280;3695;53.330;9.876;2023-10-31T09:15:31;98445.56;;;13.38;nan
7309;BME280;3695;53.330;9.876;2023-10-31T09:17:57;98466.28;;;13.52;nan
7309;BME280;3695;53.330;9.876;2023-10-31T09:20:24;98466.38;;;13.49;nan
7309;BME280;3695;53.330;9.876;2023-10-31T09:22:50;98483.72;;;13.22;nan
7309;BME280;3695;53.330;9.876;2023-10-31T09:25:17;98477.53;;;13.24;nan
7309;BME280;3695;53.330;9.876;2023-10-31T09:27:44;98475.63;;;13.31;nan
7309;BME280;3695;53.330;9.876;2023-10-31T09:30:12;98504.66;;;13.29;nan
7309;BME280;3695;53.330;9.876;2023-10-31T09:32:38;98511.13;;;13.15;nan
7309;BME280;3695;53.330;9.876;2023-10-31T09:35:05;98518.63;;;13.33;nan
7309;BME280;3695;53.330;9.876;2023-10-31T09:37:33;98535.53;;;13.26;nan
7309;BME280;3695;53.330;9.876;2023-10-31T09:39:59;98553.38;;;13.12;nan
7309;BME280;3695;53.330;9.876;2023-10-31T09:42:26;98531.94;;;13.28;nan
7309;BME280;3695;53.330;9.876;2023-10-31T09:44:52;98552.13;;;13.31;nan
7309;BME280;3695;53.330;9.876;2023-10-31T09:47:22;98551.28;;;13.29;nan
7309;BME280;3695;53.330;9.876;2023-10-31T09:49:48;98569.31;;;13.07;nan
7309;BME280;3695;53.330;9.876;2023-10-31T09:52:15;98571.09;;;13.05;nan
7309;BME280;3695;53.330;9.876;2023-10-31T09:54:42;98563.72;;;13.22;nan
7309;BME280;3695;53.330;9.876;2023-10-31T09:57:08;98587.00;;;13.43;nan
7309;BME280;3695;53.330;9.876;2023-10-31T09:59:36;98595.94;;;13.38;nan
7309;BME280;3695;53.330;9.876;2023-10-31T10:02:03;98588.72;;;13.44;nan
7309;BME280;3695;53.330;9.876;2023-10-31T10:04:31;98603.00;;;13.36;nan
7309;BME280;3695;53.330;9.876;2023-10-31T10:07:01;98603.50;;;13.52;nan
7309;BME280;3695;53.330;9.876;2023-10-31T10:09:28;98614.72;;;13.21;nan
7309;BME280;3695;53.330;9.876;2023-10-31T10:11:56;98627.97;;;13.20;nan
7309;BME280;3695;53.330;9.876;2023-10-31T10:14:23;98626.00;;;13.29;nan
7309;BME280;3695;53.330;9.876;2023-10-31T10:16:50;98651.25;;;13.41;nan
7309;BME280;3695;53.330;9.876;2023-10-31T10:19:17;98641.19;;;13.18;nan
7309;BME280;3695;53.330;9.876;2023-10-31T10:21:51;98646.81;;;13.43;nan
7309;BME280;3695;53.330;9.876;2023-10-31T10:24:18;98650.53;;;13.33;nan
7309;BME280;3695;53.330;9.876;2023-10-31T10:26:45;98651.41;;;13.33;nan
7309;BME280;3695;53.330;9.876;2023-10-31T10:29:12;98670.25;;;13.57;nan
7309;BME280;3695;53.330;9.876;2023-10-31T10:31:38;98674.50;;;13.62;nan
7309;BME280;3695;53.330;9.876;2023-10-31T10:34:06;98682.25;;;13.30;nan
7309;BME280;3695;53.330;9.876;2023-10-31T10:36:33;98694.56;;;13.31;nan
7309;BME280;3695;53.330;9.876;2023-10-31T10:39:02;98691.94;;;13.29;nan
7309;BME280;3695;53.330;9.876;2023-10-31T10:41:29;98698.13;;;13.27;nan
7309;BME280;3695;53.330;9.876;2023-10-31T10:44:03;98713.78;;;13.37;nan
7309;BME280;3695;53.330;9.876;2023-10-31T10:46:33;98723.97;;;13.54;nan
7309;BME280;3695;53.330;9.876;2023-10-31T10:49:03;98721.06;;;13.68;nan
7309;BME280;3695;53.330;9.876;2023-10-31T10:51:40;98721.75;;;13.74;nan
7309;BME280;3695;53.330;9.876;2023-10-31T10:54:17;98728.34;;;13.55;nan
7309;BME280;3695;53.330;9.876;2023-10-31T10:56:48;98724.41;;;13.74;nan
7309;BME280;3695;53.330;9.876;2023-10-31T10:59:21;98744.25;;;13.51;nan
7309;BME280;3695;53.330;9.876;2023-10-31T11:01:51;98745.84;;;13.59;nan
7309;BME280;3695;53.330;9.876;2023-10-31T11:04:19;98745.69;;;13.67;nan
7309;BME280;3695;53.330;9.876;2023-10-31T11:06:46;98755.50;;;13.60;nan
7309;BME280;3695;53.330;9.876;2023-10-31T11:09:15;98753.31;;;13.80;nan
7309;BME280;3695;53.330;9.876;2023-10-31T11:11:43;98763.69;;;13.90;nan
7309;BME280;3695;53.330;9.876;2023-10-31T11:14:14;98769.06;;;13.85;nan
7309;BME280;3695;53.330;9.876;2023-10-31T11:16:44;98776.66;;;13.59;nan
7309;BME280;3695;53.330;9.876;2023-10-31T11:19:12;98779.72;;;13.80;nan
7309;BME280;3695;53.330;9.876;2023-10-31T11:21:53;98787.47;;;13.88;nan
7309;BME280;3695;53.330;9.876;2023-10-31T11:24:21;98794.69;;;13.37;nan
7309;BME280;3695;53.330;9.876;2023-10-31T11:26:52;98794.88;;;13.71;nan
7309;BME280;3695;53.330;9.876;2023-10-31T11:29:19;98807.69;;;13.91;nan
7309;BME280;3695;53.330;9.876;2023-10-31T11:31:46;98817.19;;;13.56;nan
7309;BME280;3695;53.330;9.876;2023-10-31T11:34:16;98820.41;;;13.70;nan
7309;BME280;3695;53.330;9.876;2023-10-31T11:36:42;98823.19;;;13.63;nan
7309;BME280;3695;53.330;9.876;2023-10-31T11:39:13;98826.66;;;13.66;nan
7309;BME280;3695;53.330;9.876;2023-10-31T11:41:45;98836.84;;;13.84;nan
7309;BME280;3695;53.330;9.876;2023-10-31T11:44:14;98841.94;;;13.49;nan
7309;BME280;3695;53.330;9.876;2023-10-31T11:46:41;98847.78;;;13.66;nan
7309;BME280;3695;53.330;9.876;2023-10-31T11:49:07;98837.72;;;13.39;nan
7309;BME280;3695;53.330;9.876;2023-10-31T11:51:34;98850.06;;;13.84;nan
7309;BME280;3695;53.330;9.876;2023-10-31T11:54:01;98846.91;;;13.66;nan
7309;BME280;3695;53.330;9.876;2023-10-31T11:56:28;98853.50;;;13.42;nan
7309;BME280;3695;53.330;9.876;2023-10-31T11:58:57;98855.56;;;13.72;nan
7309;BME280;3695;53.330;9.876;2023-10-31T12:01:23;98870.09;;;13.50;nan
7309;BME280;3695;53.330;9.876;2023-10-31T12:03:50;98869.53;;;13.31;nan
7309;BME280;3695;53.330;9.876;2023-10-31T12:06:17;98878.03;;;13.47;nan
7309;BME280;3695;53.330;9.876;2023-10-31T12:08:46;98866.06;;;13.75;nan
7309;BME280;3695;53.330;9.876;2023-10-31T12:11:15;98873.38;;;13.61;nan
7309;BME280;3695;53.330;9.876;2023-10-31T12:13:52;98875.41;;;13.47;nan
7309;BME280;3695;53.330;9.876;2023-10-31T12:16:23;98874.81;;;13.77;nan
7309;BME280;3695;53.330;9.876;2023-10-31T12:18:54;98878.22;;;13.38;nan
7309;BME280;3695;53.330;9.876;2023-10-31T12:21:34;98875.72;;;13.29;nan
7309;BME280;3695;53.330;9.876;2023-10-31T12:24:03;98875.56;;;13.38;nan
7309;BME280;3695;53.330;9.876;2023-10-31T12:26:29;98879.31;;;13.25;nan
7309;BME280;3695;53.330;9.876;2023-10-31T12:29:06;98879.69;;;13.53;nan
7309;BME280;3695;53.330;9.876;2023-10-31T12:31:34;98893.00;;;13.47;nan
7309;BME280;3695;53.330;9.876;2023-10-31T12:34:04;98892.72;;;13.08;nan
7309;BME280;3695;53.330;9.876;2023-10-31T12:36:31;98892.44;;;13.28;nan
7309;BME280;3695;53.330;9.876;2023-10-31T12:38:57;98894.75;;;13.46;nan
7309;BME280;3695;53.330;9.876;2023-10-31T12:41:24;98904.78;;;13.75;nan
7309;BME280;3695;53.330;9.876;2023-10-31T12:43:50;98903.47;;;13.51;nan
7309;BME280;3695;53.330;9.876;2023-10-31T12:46:27;98909.66;;;13.50;nan
7309;BME280;3695;53.330;9.876;2023-10-31T12:48:57;98909.50;;;13.58;nan
7309;BME280;3695;53.330;9.876;2023-10-31T12:51:23;98911.34;;;13.53;nan
7309;BME280;3695;53.330;9.876;2023-10-31T12:53:50;98904.09;;;13.15;nan
7309;BME280;3695;53.330;9.876;2023-10-31T12:56:36;98912.19;;;13.56;nan
7309;BME280;3695;53.330;9.876;2023-10-31T12:59:04;98910.00;;;13.29;nan
7309;BME280;3695;53.330;9.876;2023-10-31T13:01:32;98913.75;;;13.14;nan
7309;BME280;3695;53.330;9.876;2023-10-31T13:04:01;98919.81;;;13.21;nan
7309;BME280;3695;53.330;9.876;2023-10-31T13:06:27;98923.78;;;13.48;nan
7309;BME280;3695;53.330;9.876;2023-10-31T13:08:55;98930.25;;;13.77;nan
7309;BME280;3695;53.330;9.876;2023-10-31T13:11:22;98925.94;;;13.23;nan
7309;BME280;3695;53.330;9.876;2023-10-31T13:13:51;98929.25;;;13.35;nan
7309;BME280;3695;53.330;9.876;2023-10-31T13:16:17;98941.16;;;13.59;nan
7309;BME280;3695;53.330;9.876;2023-10-31T13:18:44;98941.69;;;13.79;nan
7309;BME280;3695;53.330;9.876;2023-10-31T13:21:12;98937.97;;;13.39;nan
7309;BME280;3695;53.330;9.876;2023-10-31T13:23:40;98937.06;;;13.43;nan
7309;BME280;3695;53.330;9.876;2023-10-31T13:26:08;98952.25;;;13.27;nan
7309;BME280;3695;53.330;9.876;2023-10-31T13:28:35;98949.91;;;13.08;nan
7309;BME280;3695;53.330;9.876;2023-10-31T13:31:01;98947.72;;;13.37;nan
7309;BME280;3695;53.330;9.876;2023-10-31T13:33:29;98954.00;;;13.27;nan
7309;BME280;3695;53.330;9.876;2023-10-31T13:35:55;98960.91;;;13.35;nan
7309;BME280;3695;53.330;9.876;2023-10-31T13:38:23;98962.00;;;13.21;nan
7309;BME280;3695;53.330;9.876;2023-10-31T13:40:49;98972.38;;;13.33;nan
7309;BME280;3695;53.330;9.876;2023-10-31T13:43:16;98965.88;;;13.54;nan
7309;BME280;3695;53.330;9.876;2023-10-31T13:45:42;98974.97;;;13.36;nan